Flight Track Log - Related Links

Times and Time Zones

All times are in EDT time to prevent confusion due to time zone crossing. See the SKW6395 flight status page for this flight to view local times or setup timezone preferences in your user account.

Time Position Orientation Groundspeed Altitude Reporting Facility
EDT Latitude Longitude Course Direction KTS MPH feet Rate Location/Type
Tue 08:13:19 PM 35.3717 -119.0658 65° Northeast 300 345 5,100  Level Los Angeles Center
Tue 08:14:22 PM 35.3214 -118.9931 130° Southeast 281 323 7,600 2,352 Climbing Los Angeles Center
Tue 08:15:24 PM 35.2672 -118.9197 132° Southeast 286 329 10,000 1,887 Climbing Los Angeles Center
Tue 08:16:26 PM 35.2086 -118.8394 132° Southeast 305 351 11,500 1,984 Climbing Los Angeles Center
Tue 08:17:00 PM 35.7328 -118.2809 64° Northeast  Level Estimated
Tue 08:17:28 PM 35.1319 -118.7386 133° Southeast 333 383 14,100  Level Los Angeles Center
Tue 08:18:00 PM 35.7821 -118.1508 65° Northeast  Level Estimated
Tue 08:18:30 PM 35.0689 -118.6514 131° Southeast 342 394 15,700  Level Los Angeles Center
Tue 08:19:44 PM 35.0028 -118.5625 132° Southeast 352 405 17,200 1,304 Climbing Los Angeles Center
Tue 08:20:48 PM 34.9136 -118.4428 132° Southeast 370 426 18,700 1,226 Climbing Los Angeles Center
Tue 08:22:01 PM 34.8422 -118.3472 132° Southeast 381 438 20,000 1,244 Climbing Los Angeles Center
Tue 08:23:03 PM 34.7547 -118.2292 132° Southeast 393 452 21,500 1,306 Climbing Los Angeles Center
Tue 08:24:05 PM 34.6822 -118.1347 133° Southeast 388 447 22,700 960 Climbing Los Angeles Center
Tue 08:25:08 PM 34.6364 -118.0172 115° Southeast 410 472 23,500 864 Climbing Los Angeles Center
Tue 08:26:10 PM 34.6650 -117.8603 77° East 402 463 24,500 823 Climbing Los Angeles Center
Tue 08:27:12 PM 34.6967 -117.7261 74° East 412 474 25,200 774 Climbing Los Angeles Center
Tue 08:28:14 PM 34.7283 -117.5925 74° East 415 478 26,100 823 Climbing Los Angeles Center
Tue 08:29:16 PM 34.7592 -117.4581 74° East 416 479 26,900 726 Climbing Los Angeles Center
Tue 08:30:18 PM 34.7892 -117.3214 75° East 422 486 27,600 581 Climbing Los Angeles Center
Tue 08:31:20 PM 34.8275 -117.1558 74° East 427 491 28,100 435 Climbing Los Angeles Center
Tue 08:32:22 PM 34.8603 -117.0158 74° East 432 497 28,500 484 Climbing Los Angeles Center
Tue 08:33:24 PM 34.9017 -116.8756 70° East 441 507 29,100 576 Climbing Los Angeles Center
Tue 08:34:27 PM 34.9831 -116.7625 49° Northeast 443 510 29,700 624 Climbing Los Angeles Center
Tue 08:35:29 PM 35.0636 -116.6461 50° Northeast 449 517 30,400 726 Climbing Los Angeles Center
Tue 08:36:31 PM 35.1589 -116.5089 50° Northeast 446 513 31,200 629 Climbing Los Angeles Center
Tue 08:37:33 PM 35.2394 -116.3958 49° Northeast 442 509 31,700 435 Climbing Los Angeles Center
Tue 08:38:35 PM 35.3036 -116.2669 59° Northeast 446 513 32,100 435 Climbing Los Angeles Center
Tue 08:39:37 PM 35.3547 -116.1286 66° East 447 514 32,600 435 Climbing Los Angeles Center
Tue 08:40:39 PM 35.4081 -115.9919 64° Northeast 446 513 33,000 194 Climbing Los Angeles Center
Tue 08:41:41 PM 35.4733 -115.8239 64° Northeast 453 521 33,000  Level Los Angeles Center
Tue 08:42:43 PM 35.5289 -115.6817 64° Northeast 460 529 33,000  Level Los Angeles Center
Tue 08:43:45 PM 35.5828 -115.5369 65° Northeast 465 535 33,000  Level Los Angeles Center
Tue 08:44:47 PM 35.6375 -115.3911 65° Northeast 469 540 33,000 96 Level Los Angeles Center
Tue 08:45:50 PM 35.6922 -115.2439 65° Northeast 472 543 33,200 288 Climbing Los Angeles Center
Tue 08:46:52 PM 35.7453 -115.0931 67° East 464 534 33,600 387 Climbing Los Angeles Center
Tue 08:47:54 PM 35.7997 -114.9528 64° Northeast 457 526 34,000 435 Climbing Los Angeles Center
Tue 08:48:56 PM 35.8614 -114.7789 66° East 459 528 34,500 435 Climbing Los Angeles Center
Tue 08:49:58 PM 35.9131 -114.6367 66° East 456 525 34,900 242 Climbing Los Angeles Center
Tue 08:51:00 PM 35.9642 -114.4947 66° East 454 522 35,000 48 Climbing Los Angeles Center
Tue 08:52:02 PM 36.0206 -114.3394 66° East 457 526 35,000  Level Los Angeles Center
Tue 08:53:04 PM 36.0739 -114.1933 66° East 464 534 35,000  Level Los Angeles Center
Tue 08:54:06 PM 36.1275 -114.0467 66° East 469 540 35,000  Level Los Angeles Center
Tue 08:55:08 PM 36.1803 -113.8986 66° East 471 542 35,000  Level Los Angeles Center
Tue 08:56:10 PM 36.2331 -113.7503 66° East 471 542 35,000  Level Los Angeles Center
Tue 08:57:12 PM 36.2914 -113.5847 66° East 470 541 35,000  Level Los Angeles Center
Tue 08:58:14 PM 36.3431 -113.4367 67° East 470 541 35,000  Level Los Angeles Center
Tue 08:59:16 PM 36.3953 -113.2908 66° East 467 537 35,000  Level Los Angeles Center
Tue 09:00:18 PM 36.4567 -113.1131 67° East 468 539 35,000  Level Los Angeles Center
Tue 09:01:20 PM 36.5078 -112.9653 67° East 468 539 35,000  Level Los Angeles Center
Tue 09:02:22 PM 36.5586 -112.8167 67° East 468 539 35,000  Level Los Angeles Center
Tue 09:03:24 PM 36.6100 -112.6678 67° East 470 541 35,000  Level Los Angeles Center
Tue 09:04:26 PM 36.6608 -112.5175 67° East 472 543 35,000  Level Los Angeles Center
Tue 09:05:28 PM 36.7114 -112.3686 67° East 470 541 35,000  Level Los Angeles Center
Tue 09:06:30 PM 36.7722 -112.1886 67° East 471 542 35,000  Level Los Angeles Center
Tue 09:07:31 PM 36.8219 -112.0400 67° East 469 540 35,000  Level Los Angeles Center
Tue 09:08:33 PM 36.8722 -111.8908 67° East 469 540 35,000  Level Los Angeles Center
Tue 09:09:35 PM 36.9119 -111.7700 68° East 470 541 35,000  Level Los Angeles Center
Tue 09:10:37 PM 36.9719 -111.5900 67° East 470 541 35,000  Level Los Angeles Center
Tue 09:11:14 PM 37.0011 -111.5003 68° East 471 542 35,000  Level Denver Center
Tue 09:12:15 PM 37.0600 -111.3192 68° East 470 541 35,000  Level Denver Center
Tue 09:13:17 PM 37.1100 -111.1669 68° East 473 544 35,000  Level Denver Center
Tue 09:14:19 PM 37.1486 -111.0453 68° East 473 544 35,000  Level Denver Center
Tue 09:15:21 PM 37.2092 -110.8614 67° East 477 549 35,000  Level Denver Center
Tue 09:16:23 PM 37.2608 -110.7078 67° East 480 552 35,000  Level Denver Center
Tue 09:17:25 PM 37.3275 -110.5631 60° Northeast 480 552 35,000  Level Denver Center
Tue 09:18:26 PM 37.4039 -110.3872 61° Northeast 480 552 35,000  Level Denver Center
Tue 09:19:28 PM 37.4672 -110.2406 61° Northeast 479 551 35,000  Level Denver Center
Tue 09:20:30 PM 37.5264 -110.1050 61° Northeast 479 551 35,000  Level Denver Center
Tue 09:21:32 PM 37.5983 -109.9400 61° Northeast 480 552 35,000  Level Denver Center
Tue 09:22:34 PM 37.6597 -109.7986 61° Northeast 479 551 35,000  Level Denver Center
Tue 09:23:35 PM 37.7306 -109.6336 61° Northeast 477 549 35,000  Level Denver Center
Tue 09:24:37 PM 37.7914 -109.4908 62° Northeast 479 551 35,000  Level Denver Center
Tue 09:25:39 PM 37.8617 -109.3247 62° Northeast 479 551 35,000  Level Denver Center
Tue 09:26:41 PM 37.9211 -109.1825 62° Northeast 479 551 35,000  Level Denver Center
Tue 09:27:43 PM 37.9819 -109.0414 61° Northeast 476 548 35,000  Level Denver Center
Tue 09:28:45 PM 38.0517 -108.8728 62° Northeast 481 554 35,000  Level Denver Center
Tue 09:29:47 PM 38.1092 -108.7308 63° Northeast 484 557 35,000  Level Denver Center
Tue 09:30:49 PM 38.1797 -108.5667 61° Northeast 477 549 35,000  Level Denver Center
Tue 09:31:51 PM 38.2386 -108.4222 63° Northeast 479 551 35,000  Level Denver Center
Tue 09:32:53 PM 38.3069 -108.2542 63° Northeast 480 552 35,000  Level Denver Center
Tue 09:33:54 PM 38.3558 -108.1361 62° Northeast 476 548 35,000  Level Denver Center
Tue 09:34:56 PM 38.4344 -107.9447 62° Northeast 479 551 35,000 -339 Level Denver Center
Tue 09:35:58 PM 38.4919 -107.8014 63° Northeast 476 548 34,300 -1,016 Descending Denver Center
Tue 09:37:00 PM 38.5589 -107.6353 63° Northeast 474 545 32,900 -1,258 Descending Denver Center
Tue 09:38:02 PM 38.6153 -107.4961 63° Northeast 465 535 31,700 -1,210 Descending Denver Center
Tue 09:39:04 PM 38.6806 -107.3314 63° Northeast 465 535 30,400 -1,161 Descending Denver Center
Tue 09:40:06 PM 38.7364 -107.1936 63° Northeast 459 528 29,300 -1,113 Descending Denver Center
Tue 09:41:08 PM 38.7897 -107.0569 63° Northeast 456 525 28,100 -1,113 Descending Denver Center
Tue 09:42:10 PM 38.8569 -106.8853 63° Northeast 451 519 27,000 -532 Descending Denver Center
Tue 09:43:12 PM 38.9144 -106.7406 63° Northeast 437 503 27,000  Level Denver Center
Tue 09:44:14 PM 38.9639 -106.6067 65° Northeast 435 501 27,000  Level Denver Center
Tue 09:45:16 PM 39.0272 -106.4469 63° Northeast 448 516 27,000 -145 Level Denver Center
Tue 09:46:18 PM 39.0803 -106.3086 64° Northeast 451 519 26,700 -968 Descending Denver Center
Tue 09:47:20 PM 39.1392 -106.1592 63° Northeast 436 502 25,000 -1,452 Descending Denver Center
Tue 09:48:22 PM 39.1800 -106.0506 64° Northeast 402 463 23,700 -1,500 Descending Denver Center
Tue 09:49:24 PM 39.2381 -105.8969 64° Northeast 396 456 21,900 -1,368 Descending Denver Center
Tue 09:50:38 PM 39.2850 -105.7725 64° Northeast 390 449 20,600 -1,147 Descending Denver Center
Tue 09:51:40 PM 39.3406 -105.6244 64° Northeast 385 443 19,300 -1,210 Descending Denver Center
Tue 09:52:42 PM 39.3842 -105.5092 64° Northeast 358 412 18,100 -1,210 Descending Denver Center
Tue 09:53:44 PM 39.3997 -105.3797 81° East 337 388 16,800 -1,306 Descending Denver Center
Tue 09:54:46 PM 39.4050 -105.2533 87° East 327 376 15,400 -1,306 Descending Denver Center
Tue 09:55:48 PM 39.4103 -105.1464 86° East 303 349 14,100 -1,161 Descending Denver Center
Tue 09:56:50 PM 39.4150 -105.0467 86° East 282 325 13,000 -1,016 Descending Denver Center
Tue 09:57:52 PM 39.4406 -104.9506 71° East 266 306 12,000 -823 Descending Denver Center
Tue 09:58:54 PM 39.4856 -104.8792 51° Northeast 258 297 11,300 -905 Descending Denver Center
Tue 09:59:58 PM 39.5392 -104.8083 46° Northeast 256 295 10,100 -905 Descending Denver Center
Tue 10:01:00 PM 39.6047 -104.7589 30° Northeast 254 292 9,400 -581 Descending Denver Center
Tue 10:02:02 PM 39.6664 -104.7214 25° Northeast 247 284 8,900 -726 Descending Denver Center
Tue 10:03:04 PM 39.7217 -104.6922 22° Northeast 204 235 7,900 -919 Descending Denver Center
Tue 10:04:06 PM 39.7753 -104.6883 North 194 223 7,000 -823 Descending Denver Center
Tue 10:05:08 PM 39.8208 -104.6878 North 159 183 6,200 -726 Descending Denver Center
Tue 10:06:10 PM 39.8622 -104.6872 North 142 163 5,500 -677 Descending Denver Center
Tue 10:08:00 PM 39.8617 -104.6732 90° East  Level Estimated
Tue 10:15:00 PM 39.8617 -104.6732 90° East  Level Estimated
Tue 10:16:00 PM 39.8617 -104.6732 90° East  Level Estimated

Login

Don't have an account? Register now (free) for customized features, flight alerts, and more!